Time;durP1;ratioP1;P1;durP2;ratioP2;P2;SDS_P1;SDS_P2;PMS_P1;PMS_P2;Temp;Humidity;BMP_temperature;BMP_pressure;BME280_temperature;BME280_humidity;BME280_pressure;Samples;Min_cycle;Max_cycle;Signal;HPM_P1;HPM_P2
2023/09/24 00:08:28;;;;;;;8.67;3.10;;;;;;;12.50;66.93;101223.28;21067631;28;20214;-78
2023/09/24 00:18:31;;;;;;;5.50;2.70;;;;;;;12.25;67.30;101230.34;21076744;28;20204;-78
2023/09/24 00:28:33;;;;;;;3.92;2.42;;;;;;;12.50;66.72;101231.75;21076473;28;20516;-80
2023/09/24 00:38:36;;;;;;;5.13;2.80;;;;;;;12.37;66.56;101241.91;21077720;28;20203;-78
2023/09/24 00:48:39;;;;;;;4.90;3.53;;;;;;;12.46;66.17;101239.19;21080652;28;20222;-79
2023/09/24 00:58:47;;;;;;;5.20;2.77;;;;;;;12.57;64.64;101257.56;21003719;28;20202;-87
2023/09/24 01:08:49;;;;;;;6.67;2.57;;;;;;;12.47;65.22;101249.31;20998701;28;20230;-87
2023/09/24 01:18:53;;;;;;;7.10;2.73;;;;;;;12.27;65.73;101259.94;21002024;28;20632;-89
2023/09/24 01:28:57;;;;;;;8.93;2.30;;;;;;;12.53;64.59;101265.00;20990715;28;20216;-87
2023/09/24 01:38:59;;;;;;;4.07;2.47;;;;;;;12.14;65.27;101260.81;21012492;28;20198;-86
2023/09/24 01:49:04;;;;;;;4.33;2.20;;;;;;;12.15;65.47;101285.06;20997184;28;20325;-89
2023/09/24 01:59:06;;;;;;;6.40;2.50;;;;;;;12.34;64.50;101275.63;21067975;28;20549;-86
2023/09/24 02:09:13;;;;;;;5.20;2.27;;;;;;;12.15;64.91;101282.22;21080704;28;20249;-89
2023/09/24 02:19:16;;;;;;;5.13;2.58;;;;;;;11.71;65.60;101290.50;21086120;28;20210;-90
2023/09/24 02:29:23;;;;;;;3.97;2.70;;;;;;;11.86;65.60;101299.50;21088170;28;20268;-85
2023/09/24 02:39:25;;;;;;;2.50;2.07;;;;;;;11.41;66.79;101295.59;21095194;28;20240;-89
2023/09/24 02:49:28;;;;;;;3.63;1.93;;;;;;;11.55;66.06;101304.06;21082583;28;20222;-78
2023/09/24 02:59:29;;;;;;;4.63;2.33;;;;;;;11.55;65.47;101310.56;21058682;28;20187;-78
2023/09/24 03:09:32;;;;;;;5.43;2.80;;;;;;;11.74;64.73;101304.84;21073096;28;20313;-77
2023/09/24 03:19:34;;;;;;;5.10;2.00;;;;;;;11.39;65.68;101317.63;21062666;28;20201;-78
2023/09/24 03:29:37;;;;;;;5.70;2.40;;;;;;;11.81;64.26;101335.44;21050427;28;20229;-78
2023/09/24 03:39:39;;;;;;;5.33;2.57;;;;;;;11.92;64.33;101342.53;21078130;28;20286;-78
2023/09/24 03:49:43;;;;;;;3.57;2.20;;;;;;;11.54;65.55;101345.53;21069925;28;20231;-78
2023/09/24 03:59:44;;;;;;;4.63;3.00;;;;;;;11.50;65.06;101349.25;21064303;28;20197;-80
2023/09/24 04:09:49;;;;;;;4.27;2.40;;;;;;;11.63;64.70;101365.41;21058478;28;20226;-83
2023/09/24 04:19:51;;;;;;;5.17;2.57;;;;;;;11.67;64.39;101374.06;21070910;28;20217;-80
2023/09/24 04:29:54;;;;;;;2.77;2.23;;;;;;;11.52;65.75;101387.28;21059858;28;20271;-79
2023/09/24 04:39:56;;;;;;;5.60;3.20;;;;;;;11.47;65.81;101398.63;21060560;28;20285;-79
2023/09/24 04:49:59;;;;;;;10.87;3.73;;;;;;;11.62;65.26;101410.81;21053382;28;20232;-78
2023/09/24 05:00:01;;;;;;;6.80;3.00;;;;;;;11.00;68.21;101421.41;21052971;28;20194;-79
2023/09/24 05:10:05;;;;;;;5.60;3.70;;;;;;;10.76;68.53;101422.34;21067400;28;20210;-85
2023/09/24 05:20:09;;;;;;;7.30;3.63;;;;;;;10.43;70.12;101417.69;21076697;28;20202;-88
2023/09/24 05:30:12;;;;;;;8.17;3.83;;;;;;;10.24;70.33;101436.53;21077883;28;20218;-85
2023/09/24 05:40:14;;;;;;;6.27;4.20;;;;;;;10.46;70.15;101436.78;21074724;28;20205;-84
2023/09/24 05:50:17;;;;;;;6.80;4.07;;;;;;;10.67;69.02;101446.66;21072853;28;20314;-86
2023/09/24 06:00:19;;;;;;;5.90;4.50;;;;;;;10.67;68.82;101457.91;21074750;28;20195;-88
2023/09/24 06:10:23;;;;;;;9.43;5.00;;;;;;;11.19;67.03;101470.13;21071766;28;20261;-86
2023/09/24 06:20:25;;;;;;;7.73;4.87;;;;;;;11.49;65.85;101478.09;21073555;28;20198;-88
2023/09/24 06:30:28;;;;;;;6.77;4.80;;;;;;;10.92;68.57;101492.50;21067756;28;20226;-85
2023/09/24 06:40:30;;;;;;;8.80;5.17;;;;;;;11.14;67.34;101502.03;21076748;28;20213;-82
2023/09/24 06:50:34;;;;;;;6.73;4.43;;;;;;;11.43;67.08;101503.84;21068665;28;20224;-81
2023/09/24 07:00:36;;;;;;;9.67;5.10;;;;;;;11.73;66.55;101514.66;21059873;28;20256;-81
2023/09/24 07:10:40;;;;;;;7.50;5.10;;;;;;;11.56;67.05;101526.44;21061352;28;20226;-85
2023/09/24 07:20:48;;;;;;;7.40;4.57;;;;;;;12.18;65.57;101531.91;21072613;28;20386;-84
2023/09/24 07:30:52;;;;;;;6.68;3.17;;;;;;;12.33;64.75;101544.91;21068763;28;20265;-86
2023/09/24 07:40:54;;;;;;;7.97;3.70;;;;;;;12.58;64.51;101547.25;21057871;28;20222;-80
2023/09/24 07:50:57;;;;;;;4.33;2.60;;;;;;;13.16;61.90;101546.56;21064191;28;20222;-88
2023/09/24 08:01:02;;;;;;;4.00;2.15;;;;;;;13.35;61.24;101547.25;21067259;28;20559;-87
2023/09/24 08:11:05;;;;;;;3.20;1.70;;;;;;;13.75;59.64;101539.81;21062121;28;20313;-79
2023/09/24 08:21:07;;;;;;;2.35;1.50;;;;;;;14.33;56.46;101547.38;21060612;28;20301;-79
2023/09/24 08:31:12;;;;;;;4.20;1.33;;;;;;;14.21;56.66;101550.81;21063382;28;20275;-79
2023/09/24 08:41:14;;;;;;;4.55;1.30;;;;;;;14.35;55.99;101545.06;21057596;28;20225;-83
2023/09/24 08:51:18;;;;;;;3.22;1.00;;;;;;;14.79;54.31;101546.91;21080252;28;20238;-80
2023/09/24 09:01:21;;;;;;;4.20;1.13;;;;;;;14.98;52.32;101541.78;21070915;28;20229;-81
2023/09/24 09:11:37;;;;;;;3.88;0.60;;;;;;;15.67;50.49;101533.38;21062033;28;20219;-81
2023/09/24 09:21:40;;;;;;;3.30;0.75;;;;;;;15.12;48.90;101536.00;21074972;28;20652;-82
2023/09/24 09:31:49;;;;;;;2.65;0.50;;;;;;;15.79;48.63;101530.75;21067572;28;20305;-86
2023/09/24 09:41:52;;;;;;;3.53;0.63;;;;;;;15.40;47.33;101522.38;21077261;28;20533;-85
2023/09/24 09:52:00;;;;;;;3.10;0.60;;;;;;;15.65;46.68;101515.03;21064316;28;20224;-85
2023/09/24 10:02:03;;;;;;;2.58;0.30;;;;;;;15.86;44.03;101515.19;21062632;28;20546;-83
2023/09/24 10:12:09;;;;;;;3.30;0.40;;;;;;;16.39;41.57;101498.50;21072022;28;20222;-89
2023/09/24 10:22:24;;;;;;;4.07;0.40;;;;;;;16.10;41.88;101487.09;21055284;28;20210;-86
2023/09/24 10:32:29;;;;;;;1.17;0.30;;;;;;;16.44;40.04;101481.28;21082142;28;20218;-90
2023/09/24 10:42:31;;;;;;;2.05;0.65;;;;;;;16.32;40.25;101469.81;21051812;28;20209;-81
2023/09/24 10:52:48;;;;;;;0.90;0.20;;;;;;;16.69;39.60;101464.47;21034462;28;20226;-89
2023/09/24 11:02:54;;;;;;;2.55;0.28;;;;;;;17.08;38.46;101468.88;21025803;28;20622;-89
2023/09/24 11:13:00;;;;;;;1.05;0.40;;;;;;;17.31;36.45;101452.34;21041315;28;20309;-88
2023/09/24 11:23:03;;;;;;;0.90;0.30;;;;;;;17.47;38.00;101436.28;21050349;28;20205;-91
2023/09/24 11:33:12;;;;;;;3.00;0.32;;;;;;;17.23;36.38;101430.50;21065589;28;20232;-83
2023/09/24 11:43:15;;;;;;;3.35;0.80;;;;;;;17.31;38.31;101418.19;21081905;28;20511;-82
2023/09/24 11:53:20;;;;;;;1.20;0.32;;;;;;;17.75;36.77;101397.50;21040309;28;20227;-79
2023/09/24 12:03:24;;;;;;;1.95;0.50;;;;;;;16.97;38.11;101410.75;21020577;28;20213;-79
2023/09/24 12:13:27;;;;;;;1.65;0.30;;;;;;;17.71;36.80;101402.22;21024138;28;20632;-79
2023/09/24 12:23:29;;;;;;;2.22;0.52;;;;;;;17.85;37.72;101414.13;21033966;28;20210;-79
2023/09/24 12:33:33;;;;;;;1.48;0.40;;;;;;;18.17;36.11;101408.75;21053279;28;20218;-80
2023/09/24 12:43:35;;;;;;;2.25;0.40;;;;;;;17.62;36.99;101401.47;21031195;28;20202;-80
2023/09/24 12:53:40;;;;;;;1.13;0.50;;;;;;;17.72;36.68;101401.03;21023184;28;20655;-81
2023/09/24 13:03:45;;;;;;;1.05;0.40;;;;;;;18.21;36.33;101389.72;21017906;28;20217;-80
2023/09/24 13:13:49;;;;;;;2.63;0.40;;;;;;;18.14;35.60;101389.50;21014833;28;20309;-80
2023/09/24 13:23:54;;;;;;;1.05;0.20;;;;;;;18.16;34.85;101392.84;21015406;28;20502;-82
2023/09/24 13:33:59;;;;;;;1.05;0.43;;;;;;;18.40;34.46;101375.72;21051892;28;20215;-80
2023/09/24 13:44:01;;;;;;;1.17;0.22;;;;;;;18.63;34.27;101362.66;21081069;28;20206;-79
2023/09/24 13:54:09;;;;;;;2.40;0.35;;;;;;;17.80;36.12;101354.53;21048311;28;20257;-80
2023/09/24 14:04:11;;;;;;;0.55;0.30;;;;;;;18.34;35.44;101354.34;21069346;28;20236;-81
2023/09/24 14:14:16;;;;;;;0.88;0.30;;;;;;;18.52;34.38;101344.38;21042087;28;20223;-89
2023/09/24 14:24:21;;;;;;;2.72;0.20;;;;;;;18.20;35.55;101353.88;21040758;28;20578;-81
2023/09/24 14:34:27;;;;;;;0.60;0.30;;;;;;;18.19;35.36;101355.91;21038070;28;20320;-80
2023/09/24 14:44:32;;;;;;;4.25;1.83;;;;;;;18.80;34.64;101335.06;21034912;28;20215;-80
2023/09/24 14:54:37;;;;;;;1.40;0.50;;;;;;;18.07;35.26;101332.28;21039124;28;20657;-81
2023/09/24 15:04:38;;;;;;;1.77;0.63;;;;;;;18.73;35.03;101326.28;21043285;28;20203;-79
2023/09/24 15:14:42;;;;;;;1.00;0.20;;;;;;;18.21;35.73;101316.50;21028940;28;20219;-79
2023/09/24 15:24:44;;;;;;;1.05;0.35;;;;;;;18.69;36.09;101311.09;21045279;28;20214;-84
2023/09/24 15:34:48;;;;;;;0.77;0.45;;;;;;;18.19;36.92;101298.09;21047725;28;20224;-83
2023/09/24 15:44:50;;;;;;;0.25;0.25;;;;;;;18.18;37.36;101288.75;21037723;28;20195;-79
2023/09/24 15:54:53;;;;;;;1.40;0.30;;;;;;;18.17;36.99;101275.69;21031743;28;20785;-81
2023/09/24 16:04:56;;;;;;;1.10;0.25;;;;;;;18.50;37.55;101272.63;21039462;28;20203;-82
2023/09/24 16:15:08;;;;;;;1.05;0.25;;;;;;;17.73;38.82;101279.44;21043225;28;20222;-78
2023/09/24 16:25:12;;;;;;;0.73;0.50;;;;;;;18.30;37.83;101290.75;21042408;28;20194;-86
2023/09/24 16:35:16;;;;;;;1.58;0.38;;;;;;;18.31;38.85;101298.09;21033573;28;20233;-88
2023/09/24 16:45:19;;;;;;;0.68;0.30;;;;;;;17.71;39.94;101298.91;21041068;28;20202;-88
2023/09/24 16:55:25;;;;;;;0.90;0.47;;;;;;;17.81;40.40;101302.09;21030525;28;20258;-82
2023/09/24 17:05:27;;;;;;;3.10;0.43;;;;;;;17.76;40.63;101305.19;21045902;28;20246;-88
2023/09/24 17:15:31;;;;;;;1.25;0.50;;;;;;;17.00;42.48;101317.06;21048628;28;20254;-87
2023/09/24 17:25:33;;;;;;;2.75;0.55;;;;;;;17.24;42.46;101304.16;21047692;28;20289;-79
2023/09/24 17:35:36;;;;;;;1.23;0.55;;;;;;;16.95;42.56;101305.91;21048073;28;20225;-78
2023/09/24 17:45:38;;;;;;;1.10;0.40;;;;;;;16.64;42.96;101308.34;21036985;28;20639;-81
2023/09/24 17:55:41;;;;;;;0.93;0.35;;;;;;;16.73;43.59;101314.81;21044330;28;20534;-83
2023/09/24 18:05:43;;;;;;;1.20;0.60;;;;;;;16.41;46.00;101333.38;21044168;28;20198;-81
2023/09/24 18:15:46;;;;;;;1.58;0.50;;;;;;;15.88;47.67;101343.38;21034098;28;20267;-78
2023/09/24 18:25:48;;;;;;;3.63;0.85;;;;;;;15.27;50.70;101354.06;21036240;28;20191;-78
2023/09/24 18:35:53;;;;;;;3.30;1.00;;;;;;;15.26;50.67;101354.38;21035340;28;20250;-78
2023/09/24 18:46:00;;;;;;;1.92;0.77;;;;;;;15.09;51.87;101372.25;21038091;28;20199;-80
2023/09/24 18:56:04;;;;;;;3.47;1.00;;;;;;;14.91;52.38;101377.06;21044782;28;20229;-80
2023/09/24 19:06:07;;;;;;;1.70;0.73;;;;;;;14.89;51.96;101362.38;21041391;28;20599;-80
2023/09/24 19:16:11;;;;;;;1.98;0.98;;;;;;;14.61;53.13;101355.38;21036159;28;20296;-77
2023/09/24 19:26:16;;;;;;;2.42;1.00;;;;;;;14.48;53.67;101347.84;21035246;28;20226;-78
2023/09/24 19:36:19;;;;;;;1.38;1.15;;;;;;;14.62;52.91;101345.72;21042099;28;20522;-78
2023/09/24 19:46:21;;;;;;;1.92;0.90;;;;;;;14.28;53.81;101343.66;21031032;28;20230;-79
2023/09/24 19:56:24;;;;;;;0.93;0.82;;;;;;;13.95;55.10;101343.19;21033780;28;20236;-79
2023/09/24 20:06:26;;;;;;;2.30;0.93;;;;;;;13.71;55.98;101337.94;21062848;28;20194;-79
2023/09/24 20:16:29;;;;;;;1.70;1.13;;;;;;;13.30;57.90;101355.13;21054420;28;20249;-79
2023/09/24 20:26:31;;;;;;;1.90;1.30;;;;;;;13.46;58.66;101342.31;21058330;28;20717;-78
2023/09/24 20:36:34;;;;;;;4.13;1.30;;;;;;;13.13;59.66;101336.06;21051140;28;20233;-78
2023/09/24 20:46:37;;;;;;;1.90;1.10;;;;;;;13.22;58.51;101327.66;21033054;28;20195;-78
2023/09/24 20:56:41;;;;;;;2.13;0.98;;;;;;;13.26;58.02;101315.38;21051317;28;20222;-79
2023/09/24 21:06:44;;;;;;;1.65;1.13;;;;;;;13.33;57.71;101303.63;21055850;28;20194;-79
2023/09/24 21:16:47;;;;;;;2.90;1.10;;;;;;;12.97;57.63;101289.59;21045622;28;20237;-79
2023/09/24 21:26:49;;;;;;;1.83;0.90;;;;;;;13.12;57.10;101279.91;21040550;28;20212;-78
2023/09/24 21:36:52;;;;;;;2.50;1.00;;;;;;;13.23;56.63;101281.28;21026500;28;20641;-78
2023/09/24 21:46:55;;;;;;;1.57;0.80;;;;;;;12.95;58.54;101297.56;21041446;28;20604;-79
2023/09/24 21:56:58;;;;;;;1.00;0.73;;;;;;;12.73;58.57;101284.28;21033251;28;20627;-79
2023/09/24 22:07:00;;;;;;;1.07;0.73;;;;;;;12.63;58.04;101267.56;21032945;28;20206;-80
2023/09/24 22:17:03;;;;;;;2.67;1.10;;;;;;;13.27;55.82;101259.66;21061072;28;20248;-80
2023/09/24 22:27:05;;;;;;;1.27;0.90;;;;;;;12.90;57.57;101258.13;21034048;28;20485;-79
2023/09/24 22:37:08;;;;;;;1.00;0.80;;;;;;;12.54;58.23;101255.38;21060079;28;20222;-80
2023/09/24 22:47:11;;;;;;;3.27;1.00;;;;;;;12.20;59.92;101258.72;21061995;28;20207;-80
2023/09/24 22:57:14;;;;;;;2.63;0.70;;;;;;;12.44;59.59;101242.31;21051915;28;20235;-80
2023/09/24 23:07:15;;;;;;;2.17;0.70;;;;;;;12.04;60.08;101238.47;21024526;28;20199;-80
2023/09/24 23:17:18;;;;;;;3.27;0.90;;;;;;;11.88;60.89;101211.75;21031911;28;20219;-80
2023/09/24 23:27:20;;;;;;;1.70;0.80;;;;;;;12.14;59.08;101198.72;21033239;28;20564;-80
2023/09/24 23:37:23;;;;;;;1.15;0.60;;;;;;;12.19;58.99;101201.44;21049742;28;20222;-79
2023/09/24 23:47:25;;;;;;;1.43;0.50;;;;;;;12.08;58.47;101183.09;21074885;28;20203;-81
2023/09/24 23:57:29;;;;;;;1.75;0.52;;;;;;;12.19;56.72;101173.22;21084555;28;20330;-83
